createdAt,value
2019-03-05T00:01:10.416Z,5.30
2019-03-05T00:03:41.900Z,5.30
2019-03-05T00:06:13.836Z,5.30
2019-03-05T00:08:43.708Z,5.40
2019-03-05T00:11:13.515Z,5.40
2019-03-05T00:13:43.807Z,5.40
2019-03-05T00:16:15.098Z,5.40
2019-03-05T00:18:44.908Z,5.40
2019-03-05T00:21:16.824Z,5.40
2019-03-05T00:23:51.150Z,5.50
2019-03-05T00:26:27.935Z,5.50
2019-03-05T00:29:13.126Z,5.50
2019-03-05T00:31:48.397Z,5.50
2019-03-05T00:34:29.817Z,5.50
2019-03-05T00:37:21.492Z,5.50
2019-03-05T00:40:10.712Z,5.50
2019-03-05T00:43:07.552Z,5.50
2019-03-05T00:45:50.310Z,5.50
2019-03-05T00:48:39.424Z,5.60
2019-03-05T00:51:35.990Z,5.60
2019-03-05T00:54:29.334Z,5.60
2019-03-05T00:57:04.580Z,5.60
2019-03-05T01:00:01.045Z,5.60
2019-03-05T01:02:43.473Z,5.60
2019-03-05T01:05:40.073Z,5.60
2019-03-05T01:08:10.216Z,5.50
2019-03-05T01:10:42.706Z,5.50
2019-03-05T01:13:14.271Z,5.50
2019-03-05T01:15:44.172Z,5.40
2019-03-05T01:18:15.078Z,5.40
2019-03-05T01:20:47.859Z,5.40
2019-03-05T01:23:18.994Z,5.30
2019-03-05T01:25:51.841Z,5.30
2019-03-05T01:28:21.800Z,5.20
2019-03-05T01:30:57.069Z,5.10
2019-03-05T01:33:32.479Z,5.10
2019-03-05T01:36:03.893Z,5.10
2019-03-05T01:38:35.897Z,5.00
2019-03-05T01:41:07.303Z,5.00
2019-03-05T01:43:38.693Z,4.90
2019-03-05T01:46:10.139Z,4.90
2019-03-05T01:48:42.977Z,4.80
2019-03-05T01:51:13.080Z,4.80
2019-03-05T01:53:43.372Z,4.70
2019-03-05T01:56:13.352Z,4.70
2019-03-05T01:58:43.155Z,4.60
2019-03-05T02:01:12.965Z,4.50
2019-03-05T02:03:44.977Z,4.50
2019-03-05T02:06:15.089Z,4.50
2019-03-05T02:08:44.969Z,4.50
2019-03-05T02:11:16.015Z,4.50
2019-03-05T02:13:45.859Z,4.50
2019-03-05T02:16:15.733Z,4.40
2019-03-05T02:18:47.285Z,4.40
2019-03-05T02:21:18.430Z,4.40
2019-03-05T02:24:10.459Z,4.40
2019-03-05T02:26:48.815Z,4.30
2019-03-05T02:29:24.465Z,4.30
2019-03-05T02:32:26.084Z,4.30
2019-03-05T02:35:08.847Z,4.30
2019-03-05T02:37:43.990Z,4.30
2019-03-05T02:40:35.898Z,4.30
2019-03-05T02:43:14.380Z,4.30
2019-03-05T02:45:59.040Z,4.30
2019-03-05T02:48:51.015Z,4.30
2019-03-05T02:51:26.474Z,4.30
2019-03-05T02:54:16.298Z,4.30
2019-03-05T02:56:50.140Z,4.30
2019-03-05T02:59:21.551Z,4.40
2019-03-05T03:01:56.617Z,4.40
2019-03-05T03:04:29.765Z,4.50
2019-03-05T03:07:01.520Z,4.40
2019-03-05T03:09:35.343Z,4.40
2019-03-05T03:12:05.131Z,4.40
2019-03-05T03:14:35.024Z,4.50
2019-03-05T03:17:04.912Z,4.50
2019-03-05T03:19:36.037Z,4.50
2019-03-05T03:22:07.586Z,4.50
2019-03-05T03:24:41.505Z,4.50
2019-03-05T03:27:14.428Z,4.40
2019-03-05T03:29:45.462Z,4.40
2019-03-05T03:32:16.676Z,4.40
2019-03-05T03:34:46.704Z,4.40
2019-03-05T03:37:17.063Z,4.50
2019-03-05T03:39:49.168Z,4.50
2019-03-05T03:42:20.417Z,4.50
2019-03-05T03:44:50.985Z,4.60
2019-03-05T03:47:20.852Z,4.60
2019-03-05T03:49:52.756Z,4.70
2019-03-05T03:52:23.381Z,4.70
2019-03-05T03:54:54.160Z,4.80
2019-03-05T03:57:24.158Z,4.70
2019-03-05T03:59:55.313Z,4.80
2019-03-05T04:02:25.159Z,4.80
2019-03-05T04:04:55.064Z,4.80
2019-03-05T04:07:24.919Z,4.80
2019-03-05T04:09:54.792Z,4.80
2019-03-05T04:12:24.622Z,4.80
2019-03-05T04:15:01.184Z,4.70
2019-03-05T04:17:30.657Z,4.70
2019-03-05T04:20:01.775Z,4.60
2019-03-05T04:22:35.740Z,4.50
2019-03-05T04:25:07.126Z,4.50
2019-03-05T04:27:37.438Z,4.40
2019-03-05T04:30:12.709Z,4.40
2019-03-05T04:32:43.556Z,4.40
2019-03-05T04:35:16.740Z,4.30
2019-03-05T04:37:46.626Z,4.40
2019-03-05T04:40:20.196Z,4.30
2019-03-05T04:42:51.032Z,4.30
2019-03-05T04:45:33.126Z,4.30
2019-03-05T04:48:02.998Z,4.30
2019-03-05T04:50:50.264Z,4.30
2019-03-05T04:53:21.304Z,4.20
2019-03-05T04:55:51.155Z,4.20
2019-03-05T04:58:22.886Z,4.20
2019-03-05T05:00:52.704Z,4.30
2019-03-05T05:03:24.186Z,4.30
2019-03-05T05:05:54.225Z,4.30
2019-03-05T05:08:24.143Z,4.20
2019-03-05T05:10:56.454Z,4.30
2019-03-05T05:13:29.098Z,4.20
2019-03-05T05:16:06.998Z,4.20
2019-03-05T05:18:41.852Z,4.20
2019-03-05T05:21:15.351Z,4.20
2019-03-05T05:23:48.118Z,4.20
2019-03-05T05:26:21.260Z,4.20
2019-03-05T05:28:52.149Z,4.20
2019-03-05T05:31:23.416Z,4.20
2019-03-05T05:33:55.056Z,4.20
2019-03-05T05:36:25.274Z,4.20
2019-03-05T05:38:56.296Z,4.20
2019-03-05T05:41:28.745Z,4.20
2019-03-05T05:44:00.559Z,4.20
2019-03-05T05:46:31.000Z,4.20
2019-03-05T05:49:06.839Z,4.20
2019-03-05T05:51:38.787Z,4.20
2019-03-05T05:54:20.163Z,4.20
2019-03-05T05:56:56.056Z,4.20
2019-03-05T05:59:27.353Z,4.20
2019-03-05T06:02:00.082Z,4.20
2019-03-05T06:04:29.949Z,4.20
2019-03-05T06:07:01.071Z,4.20
2019-03-05T06:09:33.801Z,4.20
2019-03-05T06:12:07.341Z,4.20
2019-03-05T06:14:37.206Z,4.20
2019-03-05T06:17:08.852Z,4.20
2019-03-05T06:19:38.707Z,4.20
2019-03-05T06:22:12.648Z,4.20
2019-03-05T06:24:55.069Z,4.20
2019-03-05T06:27:32.783Z,4.20
2019-03-05T06:30:03.970Z,4.20
2019-03-05T06:32:36.797Z,4.30
2019-03-05T06:35:09.388Z,4.30
2019-03-05T06:37:40.466Z,4.30
2019-03-05T06:40:18.281Z,4.40
2019-03-05T06:42:50.064Z,4.40
2019-03-05T06:45:24.175Z,4.50
2019-03-05T06:48:05.485Z,4.50
2019-03-05T06:50:31.104Z,4.60
2019-03-05T06:53:02.897Z,4.60
2019-03-05T06:55:32.781Z,4.60
2019-03-05T06:58:06.439Z,4.60
2019-03-05T07:00:39.791Z,4.60
2019-03-05T07:03:11.747Z,4.70
2019-03-05T07:06:21.737Z,4.70
2019-03-05T07:09:03.459Z,4.80
2019-03-05T07:11:59.314Z,4.70
2019-03-05T07:14:36.514Z,4.80
2019-03-05T07:17:12.660Z,4.80
2019-03-05T07:19:57.998Z,4.80
2019-03-05T07:22:29.466Z,4.90
2019-03-05T07:25:01.330Z,4.90
2019-03-05T07:27:31.399Z,4.90
2019-03-05T07:30:05.881Z,5.00
2019-03-05T07:32:36.744Z,4.90
2019-03-05T07:35:10.901Z,4.90
2019-03-05T07:37:46.088Z,4.90
2019-03-05T07:40:19.807Z,4.90
2019-03-05T07:42:55.740Z,4.90
2019-03-05T07:45:28.385Z,5.00
2019-03-05T07:48:01.401Z,5.00
2019-03-05T07:50:31.383Z,5.00
2019-03-05T07:53:01.184Z,5.00
2019-03-05T07:55:33.621Z,5.10
2019-03-05T07:58:04.874Z,5.10
2019-03-05T08:00:34.806Z,5.10
2019-03-05T08:03:06.778Z,5.20
2019-03-05T08:05:37.030Z,5.20
2019-03-05T08:08:44.120Z,5.20
2019-03-05T08:11:14.686Z,5.20
2019-03-05T08:14:05.685Z,5.20
2019-03-05T08:16:38.546Z,5.30
2019-03-05T08:19:09.956Z,5.30
2019-03-05T08:21:39.888Z,5.40
2019-03-05T08:24:10.032Z,5.40
2019-03-05T08:26:40.989Z,5.40
2019-03-05T08:29:12.398Z,5.40
2019-03-05T08:31:43.506Z,5.50
2019-03-05T08:34:16.000Z,5.50
2019-03-05T08:36:47.070Z,5.60
2019-03-05T08:39:17.914Z,5.60
2019-03-05T08:41:47.746Z,5.60
2019-03-05T08:44:19.345Z,5.60
2019-03-05T08:46:49.214Z,5.60
2019-03-05T08:49:19.002Z,5.70
2019-03-05T08:51:50.284Z,5.70
2019-03-05T08:54:21.563Z,5.70
2019-03-05T08:56:55.261Z,5.70
2019-03-05T08:59:25.103Z,5.70
2019-03-05T09:01:55.048Z,5.60
2019-03-05T09:04:27.040Z,5.60
2019-03-05T09:06:57.924Z,5.50
2019-03-05T09:09:27.746Z,5.50
2019-03-05T09:11:58.174Z,5.50
2019-03-05T09:14:27.987Z,5.50
2019-03-05T09:16:58.723Z,5.50
2019-03-05T09:19:32.690Z,5.60
2019-03-05T09:22:02.525Z,5.50
2019-03-05T09:24:32.437Z,5.50
2019-03-05T09:27:02.336Z,5.50
2019-03-05T09:29:32.200Z,5.40
2019-03-05T09:32:02.056Z,5.40
2019-03-05T09:34:33.655Z,5.40
2019-03-05T09:37:03.429Z,5.30
2019-03-05T09:39:34.766Z,5.30
2019-03-05T09:42:04.742Z,5.30
2019-03-05T09:44:34.551Z,5.20
2019-03-05T09:47:07.215Z,5.20
2019-03-05T09:49:37.024Z,5.20
2019-03-05T09:52:09.488Z,5.10
2019-03-05T09:54:42.689Z,5.10
2019-03-05T09:57:13.953Z,5.10
2019-03-05T09:59:43.819Z,5.00
2019-03-05T10:02:18.243Z,5.00
2019-03-05T10:04:48.638Z,5.00
2019-03-05T10:07:20.209Z,5.00
2019-03-05T10:09:51.362Z,4.90
2019-03-05T10:12:21.542Z,4.90
2019-03-05T10:14:52.421Z,4.90
2019-03-05T10:17:22.292Z,4.90
2019-03-05T10:19:53.583Z,4.80
2019-03-05T10:22:24.270Z,4.80
2019-03-05T10:25:05.615Z,4.80
2019-03-05T10:27:28.413Z,4.80
2019-03-05T10:30:00.268Z,4.70
2019-03-05T10:32:30.011Z,4.70
2019-03-05T10:34:59.827Z,4.70
2019-03-05T10:37:32.317Z,4.70
2019-03-05T10:40:04.429Z,4.70
2019-03-05T10:42:34.883Z,4.70
2019-03-05T10:45:09.370Z,4.70
2019-03-05T10:47:43.337Z,4.70
2019-03-05T10:50:18.986Z,4.80
2019-03-05T10:52:48.844Z,4.80
2019-03-05T10:55:26.229Z,4.80
2019-03-05T10:57:57.255Z,4.80
2019-03-05T11:00:39.162Z,4.90
2019-03-05T11:03:09.323Z,4.90
2019-03-05T11:05:39.505Z,4.90
2019-03-05T11:08:13.734Z,5.00
2019-03-05T11:10:50.189Z,5.00
2019-03-05T11:13:22.535Z,5.00
2019-03-05T11:15:58.983Z,5.10
2019-03-05T11:18:34.967Z,5.10
2019-03-05T11:21:06.023Z,5.10
2019-03-05T11:23:36.146Z,5.10
2019-03-05T11:26:06.017Z,5.20
2019-03-05T11:28:35.822Z,5.20
2019-03-05T11:31:06.792Z,5.20
2019-03-05T11:33:46.803Z,5.20
2019-03-05T11:36:18.197Z,5.20
2019-03-05T11:38:49.463Z,5.20
2019-03-05T11:41:20.842Z,5.20
2019-03-05T11:43:51.259Z,5.20
2019-03-05T11:46:24.099Z,5.30
2019-03-05T11:48:53.909Z,5.20
2019-03-05T11:51:24.148Z,5.20
2019-03-05T11:53:56.202Z,5.20
2019-03-05T11:56:26.143Z,5.20
2019-03-05T11:58:56.030Z,5.10
2019-03-05T12:01:27.776Z,5.20
2019-03-05T12:03:58.139Z,5.20
2019-03-05T12:06:29.565Z,5.20
2019-03-05T12:08:59.469Z,5.20
2019-03-05T12:11:29.310Z,5.20
2019-03-05T12:13:59.202Z,5.20
2019-03-05T12:16:29.627Z,5.20
2019-03-05T12:19:02.511Z,5.30
2019-03-05T12:21:32.652Z,5.30
2019-03-05T12:24:02.488Z,5.20
2019-03-05T12:26:33.299Z,5.20
2019-03-05T12:29:04.138Z,5.20
2019-03-05T12:31:36.412Z,5.20
2019-03-05T12:34:06.309Z,5.20
2019-03-05T12:36:36.542Z,5.20
2019-03-05T12:39:06.959Z,5.10
2019-03-05T12:41:37.140Z,5.10
2019-03-05T12:44:06.974Z,5.10
2019-03-05T12:46:36.860Z,5.10
2019-03-05T12:49:09.000Z,5.10
2019-03-05T12:51:38.872Z,5.00
2019-03-05T12:54:08.752Z,5.00
2019-03-05T12:56:39.114Z,5.00
2019-03-05T12:59:08.940Z,5.00
2019-03-05T13:01:41.106Z,5.00
2019-03-05T13:04:11.943Z,5.00
2019-03-05T13:06:41.921Z,5.00
2019-03-05T13:09:17.775Z,5.00
2019-03-05T13:11:46.636Z,5.00
2019-03-05T13:14:20.764Z,5.00
2019-03-05T13:16:50.706Z,5.00
2019-03-05T13:19:20.561Z,5.00
2019-03-05T13:21:50.629Z,5.00
2019-03-05T13:24:20.462Z,4.90
2019-03-05T13:26:50.342Z,4.90
2019-03-05T13:29:21.354Z,4.90
2019-03-05T13:31:52.823Z,4.90
2019-03-05T13:34:22.644Z,4.90
2019-03-05T13:36:53.722Z,4.90
2019-03-05T13:39:24.868Z,4.90
2019-03-05T13:41:56.088Z,4.90
2019-03-05T13:44:34.712Z,4.90
2019-03-05T13:47:06.149Z,4.90
2019-03-05T13:49:56.544Z,4.90
2019-03-05T13:52:37.036Z,4.90
2019-03-05T13:55:31.846Z,4.90
2019-03-05T13:58:19.517Z,4.90
2019-03-05T14:00:50.893Z,4.90
2019-03-05T14:03:25.154Z,4.90
2019-03-05T14:06:14.128Z,4.80
2019-03-05T14:08:49.687Z,4.80
2019-03-05T14:11:19.494Z,4.80
2019-03-05T14:13:49.368Z,4.80
2019-03-05T14:16:20.594Z,4.80
2019-03-05T14:18:51.412Z,4.80
2019-03-05T14:21:22.728Z,4.80
2019-03-05T14:23:52.604Z,4.80
2019-03-05T14:26:22.364Z,4.70
2019-03-05T14:28:53.841Z,4.70
2019-03-05T14:31:23.638Z,4.70
2019-03-05T14:33:54.781Z,4.70
2019-03-05T14:36:25.367Z,4.60
2019-03-05T14:38:56.810Z,4.60
2019-03-05T14:41:26.609Z,4.60
2019-03-05T14:43:58.057Z,4.60
2019-03-05T14:46:27.883Z,4.50
2019-03-05T14:48:57.772Z,4.50
2019-03-05T14:51:29.175Z,4.50
2019-03-05T14:53:59.384Z,4.50
2019-03-05T14:56:32.187Z,4.50
2019-03-05T14:59:03.565Z,4.50
2019-03-05T15:01:33.892Z,4.50
2019-03-05T15:04:06.527Z,4.50
2019-03-05T15:06:38.720Z,4.50
2019-03-05T15:09:08.707Z,4.40
2019-03-05T15:11:39.958Z,4.40
2019-03-05T15:14:10.095Z,4.40
2019-03-05T15:16:40.478Z,4.40
2019-03-05T15:19:20.793Z,4.40
2019-03-05T15:21:46.738Z,4.40
2019-03-05T15:24:17.610Z,4.40
2019-03-05T15:26:49.137Z,4.40
2019-03-05T15:29:20.316Z,4.30
2019-03-05T15:31:51.690Z,4.30
2019-03-05T15:34:21.796Z,4.30
2019-03-05T15:36:53.755Z,4.30
2019-03-05T15:39:33.406Z,4.30
2019-03-05T15:42:03.235Z,4.30
2019-03-05T15:44:35.934Z,4.30
2019-03-05T15:47:07.360Z,4.30
2019-03-05T15:49:37.215Z,4.30
2019-03-05T15:52:09.804Z,4.20
2019-03-05T15:54:42.084Z,4.20
2019-03-05T15:57:12.369Z,4.00
2019-03-05T15:59:43.825Z,3.90
2019-03-05T16:02:17.075Z,3.90
2019-03-05T16:04:49.176Z,3.80
2019-03-05T16:07:19.979Z,3.80
2019-03-05T16:09:50.934Z,3.70
2019-03-05T16:12:20.958Z,3.60
2019-03-05T16:14:52.419Z,3.60
2019-03-05T16:17:24.206Z,3.50
2019-03-05T16:19:56.136Z,3.50
2019-03-05T16:22:25.960Z,3.50
2019-03-05T16:25:00.780Z,3.40
2019-03-05T16:27:34.345Z,3.40
2019-03-05T16:30:09.407Z,3.40
2019-03-05T16:32:45.023Z,3.30
2019-03-05T16:35:33.146Z,3.30
2019-03-05T16:38:05.538Z,3.30
2019-03-05T16:40:54.670Z,3.20
2019-03-05T16:43:44.236Z,3.20
2019-03-05T16:46:17.069Z,3.20
2019-03-05T16:48:54.551Z,3.20
2019-03-05T16:51:44.102Z,3.10
2019-03-05T16:54:32.884Z,3.10
2019-03-05T16:57:13.166Z,3.00
2019-03-05T16:59:46.338Z,3.00
2019-03-05T17:02:33.914Z,3.00
2019-03-05T17:05:15.455Z,2.90
2019-03-05T17:07:57.273Z,2.90
2019-03-05T17:10:35.636Z,2.80
2019-03-05T17:13:05.564Z,2.80
2019-03-05T17:15:36.955Z,2.70
2019-03-05T17:18:11.286Z,2.60
2019-03-05T17:20:43.236Z,2.60
2019-03-05T17:23:14.313Z,2.50
2019-03-05T17:25:45.315Z,2.40
2019-03-05T17:28:19.598Z,2.30
2019-03-05T17:30:50.318Z,2.20
2019-03-05T17:33:21.909Z,2.20
2019-03-05T17:35:52.117Z,2.10
2019-03-05T17:38:24.880Z,2.00
2019-03-05T17:40:55.781Z,2.00
2019-03-05T17:43:25.782Z,1.90
2019-03-05T17:45:55.650Z,1.90
2019-03-05T17:48:32.130Z,1.80
2019-03-05T17:51:04.103Z,1.70
2019-03-05T17:53:34.365Z,1.70
2019-03-05T17:56:04.353Z,1.60
2019-03-05T17:58:34.166Z,1.50
2019-03-05T18:01:04.836Z,1.50
2019-03-05T18:03:34.835Z,1.40
2019-03-05T18:06:06.180Z,1.40
2019-03-05T18:08:38.840Z,1.30
2019-03-05T18:11:11.646Z,1.30
2019-03-05T18:13:43.548Z,1.20
2019-03-05T18:16:13.480Z,1.20
2019-03-05T18:18:45.571Z,1.20
2019-03-05T18:21:15.794Z,1.10
2019-03-05T18:23:49.295Z,1.10
2019-03-05T18:26:21.942Z,1.10
2019-03-05T18:28:51.844Z,1.10
2019-03-05T18:31:23.973Z,1.10
2019-03-05T18:33:55.195Z,1.10
2019-03-05T18:36:32.296Z,1.10
2019-03-05T18:39:02.202Z,1.10
2019-03-05T18:41:34.633Z,1.10
2019-03-05T18:44:07.653Z,1.10
2019-03-05T18:46:40.851Z,1.10
2019-03-05T18:49:11.433Z,1.10
2019-03-05T18:51:42.567Z,1.10
2019-03-05T18:54:12.418Z,1.10
2019-03-05T18:56:44.763Z,1.10
2019-03-05T18:59:16.294Z,1.00
2019-03-05T19:01:50.720Z,1.10
2019-03-05T19:04:25.772Z,1.00
2019-03-05T19:07:02.701Z,1.00
2019-03-05T19:09:33.849Z,1.00
2019-03-05T19:12:11.837Z,1.00
2019-03-05T19:14:43.468Z,1.00
2019-03-05T19:17:13.350Z,1.00
2019-03-05T19:19:44.249Z,1.00
2019-03-05T19:22:15.289Z,0.90
2019-03-05T19:24:47.198Z,0.90
2019-03-05T19:27:25.693Z,0.90
2019-03-05T19:29:48.602Z,0.90
2019-03-05T19:32:18.405Z,0.90
2019-03-05T19:34:51.331Z,0.90
2019-03-05T19:37:23.377Z,0.90
2019-03-05T19:39:55.459Z,0.90
2019-03-05T19:42:37.066Z,0.90
2019-03-05T19:45:12.523Z,0.90
2019-03-05T19:47:45.297Z,0.90
2019-03-05T19:50:17.210Z,0.90
2019-03-05T19:52:47.653Z,0.90
2019-03-05T19:55:19.952Z,0.90
2019-03-05T19:57:50.992Z,1.00
2019-03-05T20:00:27.407Z,1.00
2019-03-05T20:02:57.275Z,1.00
2019-03-05T20:05:27.456Z,1.00
2019-03-05T20:07:57.407Z,1.00
2019-03-05T20:10:30.832Z,1.00
2019-03-05T20:13:01.446Z,1.10
2019-03-05T20:15:33.854Z,1.00
2019-03-05T20:18:07.409Z,1.10
2019-03-05T20:20:39.708Z,1.10
2019-03-05T20:23:10.978Z,1.10
2019-03-05T20:25:41.886Z,1.10
2019-03-05T20:28:29.868Z,1.10
2019-03-05T20:31:06.511Z,1.10
2019-03-05T20:33:36.871Z,1.10
2019-03-05T20:36:07.785Z,1.10
2019-03-05T20:38:39.222Z,1.10
2019-03-05T20:41:10.765Z,1.10
2019-03-05T20:43:40.849Z,1.10
2019-03-05T20:46:13.929Z,1.10
2019-03-05T20:48:43.873Z,1.10
2019-03-05T20:51:14.078Z,1.10
2019-03-05T20:53:43.929Z,1.10
2019-03-05T20:56:15.168Z,1.10
2019-03-05T20:58:46.548Z,1.10
2019-03-05T21:01:17.836Z,1.10
2019-03-05T21:03:48.945Z,1.10
2019-03-05T21:06:19.770Z,1.10
2019-03-05T21:08:49.633Z,1.10
2019-03-05T21:11:19.460Z,1.10
2019-03-05T21:13:49.785Z,1.20
2019-03-05T21:16:19.704Z,1.20
2019-03-05T21:18:49.705Z,1.10
2019-03-05T21:21:19.580Z,1.20
2019-03-05T21:23:51.222Z,1.20
2019-03-05T21:26:21.086Z,1.20
2019-03-05T21:28:51.429Z,1.20
2019-03-05T21:31:21.283Z,1.20
2019-03-05T21:33:52.849Z,1.20
2019-03-05T21:36:22.626Z,1.10
2019-03-05T21:38:52.467Z,1.10
2019-03-05T21:41:22.330Z,1.10
2019-03-05T21:43:52.248Z,1.10
2019-03-05T21:46:22.055Z,1.10
2019-03-05T21:48:53.280Z,1.10
2019-03-05T21:51:26.216Z,1.10
2019-03-05T21:54:05.191Z,1.10
2019-03-05T21:56:37.956Z,1.20
2019-03-05T21:59:08.611Z,1.20
2019-03-05T22:01:40.936Z,1.20
2019-03-05T22:04:11.877Z,1.20
2019-03-05T22:06:41.781Z,1.20
2019-03-05T22:09:11.699Z,1.20
2019-03-05T22:11:43.069Z,1.20
2019-03-05T22:14:12.885Z,1.20
2019-03-05T22:16:43.369Z,1.20
2019-03-05T22:19:13.199Z,1.10
2019-03-05T22:21:43.838Z,1.20
2019-03-05T22:24:13.640Z,1.20
2019-03-05T22:26:44.458Z,1.20
2019-03-05T22:29:14.456Z,1.20
2019-03-05T22:31:44.395Z,1.10
2019-03-05T22:34:15.530Z,1.10
2019-03-05T22:36:45.392Z,1.10
2019-03-05T22:39:15.654Z,1.10
2019-03-05T22:41:46.203Z,1.10
2019-03-05T22:44:16.013Z,1.10
2019-03-05T22:46:50.295Z,1.10
2019-03-05T22:49:20.153Z,1.00
2019-03-05T22:51:51.029Z,1.00
2019-03-05T22:54:24.508Z,1.00
2019-03-05T22:56:55.336Z,1.00
2019-03-05T22:59:25.175Z,1.00
2019-03-05T23:01:57.523Z,1.00
2019-03-05T23:04:29.666Z,1.00
2019-03-05T23:06:59.984Z,1.00
2019-03-05T23:09:35.737Z,1.00
2019-03-05T23:12:07.501Z,1.00
2019-03-05T23:14:37.731Z,1.00
2019-03-05T23:17:09.381Z,1.00
2019-03-05T23:19:39.216Z,1.00
2019-03-05T23:22:11.067Z,1.00
2019-03-05T23:24:41.298Z,1.10
2019-03-05T23:27:11.314Z,1.00
2019-03-05T23:29:43.743Z,1.00
2019-03-05T23:32:14.353Z,1.00
2019-03-05T23:34:44.202Z,1.10
2019-03-05T23:37:14.744Z,1.00
2019-03-05T23:39:47.758Z,1.10
2019-03-05T23:42:17.691Z,1.00
2019-03-05T23:44:47.544Z,1.00
2019-03-05T23:47:22.386Z,1.00
2019-03-05T23:49:53.377Z,1.00
2019-03-05T23:52:25.909Z,1.00
2019-03-05T23:54:58.007Z,1.10
2019-03-05T23:57:29.665Z,1.10
